createdAt,value
2022-11-14T00:02:38.277Z,13.23
2022-11-14T00:05:23.789Z,12.23
2022-11-14T00:08:16.309Z,12.33
2022-11-14T00:11:01.598Z,11.93
2022-11-14T00:13:46.821Z,11.00
2022-11-14T00:16:31.787Z,13.30
2022-11-14T00:19:16.516Z,12.77
2022-11-14T00:22:01.480Z,12.90
2022-11-14T00:24:46.771Z,12.43
2022-11-14T00:27:31.833Z,11.80
2022-11-14T00:30:16.538Z,12.60
2022-11-14T00:33:01.444Z,12.50
2022-11-14T00:35:53.350Z,11.53
2022-11-14T00:38:38.109Z,11.60
2022-11-14T00:41:23.575Z,11.57
2022-11-14T00:44:08.759Z,11.97
2022-11-14T00:46:53.873Z,11.27
2022-11-14T00:49:38.780Z,12.17
2022-11-14T00:52:23.608Z,11.70
2022-11-14T00:55:08.882Z,11.30
2022-11-14T00:57:54.182Z,11.10
2022-11-14T01:00:39.331Z,11.90
2022-11-14T01:03:24.377Z,12.27
2022-11-14T01:06:11.386Z,12.00
2022-11-14T01:08:56.427Z,12.13
2022-11-14T01:11:41.427Z,12.03
2022-11-14T01:14:26.413Z,11.70
2022-11-14T01:17:11.382Z,11.93
2022-11-14T01:19:56.202Z,12.30
2022-11-14T01:22:41.326Z,11.30
2022-11-14T01:25:26.311Z,11.63
2022-11-14T01:28:12.623Z,11.30
2022-11-14T01:30:57.541Z,11.00
2022-11-14T01:33:43.195Z,11.57
2022-11-14T01:36:28.149Z,11.33
2022-11-14T01:39:13.010Z,10.57
2022-11-14T01:41:58.479Z,11.80
2022-11-14T01:44:43.573Z,11.53
2022-11-14T01:47:30.434Z,10.70
2022-11-14T01:50:15.372Z,11.73
2022-11-14T01:53:00.559Z,10.93
2022-11-14T01:55:45.922Z,11.20
2022-11-14T01:58:32.012Z,11.47
2022-11-14T02:01:17.602Z,11.33
2022-11-14T02:04:06.482Z,11.87
2022-11-14T02:06:54.230Z,11.17
2022-11-14T02:09:41.077Z,10.57
2022-11-14T02:12:26.463Z,11.20
2022-11-14T02:15:11.645Z,10.80
2022-11-14T02:17:56.670Z,11.27
2022-11-14T02:20:43.375Z,10.37
2022-11-14T02:23:29.700Z,11.30
2022-11-14T02:26:21.456Z,10.90
2022-11-14T02:29:07.845Z,11.13
2022-11-14T02:31:52.945Z,10.87
2022-11-14T02:34:38.053Z,11.03
2022-11-14T02:37:23.323Z,10.20
2022-11-14T02:40:10.157Z,10.70
2022-11-14T02:42:55.598Z,11.00
2022-11-14T02:45:40.899Z,10.37
2022-11-14T02:48:26.171Z,10.43
2022-11-14T02:51:11.023Z,9.70
2022-11-14T02:53:56.304Z,10.50
2022-11-14T02:56:41.641Z,10.03
2022-11-14T02:59:26.980Z,11.00
2022-11-14T03:02:12.462Z,9.57
2022-11-14T03:04:57.717Z,11.10
2022-11-14T03:07:43.048Z,10.67
2022-11-14T03:10:28.318Z,10.63
2022-11-14T03:13:13.283Z,9.97
2022-11-14T03:15:58.316Z,9.70
2022-11-14T03:18:43.291Z,10.43
2022-11-14T03:21:28.435Z,9.90
2022-11-14T03:24:13.211Z,10.20
2022-11-14T03:26:58.273Z,9.63
2022-11-14T03:29:43.427Z,9.30
2022-11-14T03:32:28.344Z,9.67
2022-11-14T03:35:13.514Z,9.07
2022-11-14T03:37:58.438Z,9.17
2022-11-14T03:40:43.768Z,9.53
2022-11-14T03:43:32.961Z,9.27
2022-11-14T03:46:18.241Z,9.63
2022-11-14T03:49:03.873Z,9.27
2022-11-14T03:51:49.045Z,8.90
2022-11-14T03:54:34.389Z,9.83
2022-11-14T03:57:19.234Z,10.53
2022-11-14T04:00:04.345Z,8.70
2022-11-14T04:02:49.523Z,9.30
2022-11-14T04:05:34.383Z,10.47
2022-11-14T04:08:19.516Z,10.40
2022-11-14T04:11:04.421Z,8.23
2022-11-14T04:13:49.285Z,9.17
2022-11-14T04:16:34.074Z,8.43
2022-11-14T04:19:19.022Z,8.03
2022-11-14T04:22:04.148Z,8.47
2022-11-14T04:24:49.330Z,10.00
2022-11-14T04:27:34.290Z,9.70
2022-11-14T04:30:19.035Z,9.40
2022-11-14T04:33:03.865Z,9.67
2022-11-14T04:35:48.752Z,7.20
2022-11-14T04:38:33.855Z,7.70
2022-11-14T04:41:18.788Z,8.20
2022-11-14T04:44:03.868Z,8.00
2022-11-14T04:46:48.982Z,7.40
2022-11-14T04:49:34.231Z,7.13
2022-11-14T04:52:19.074Z,7.07
2022-11-14T04:55:03.926Z,7.47
2022-11-14T04:57:53.817Z,6.27
2022-11-14T05:00:38.860Z,6.80
2022-11-14T05:03:24.311Z,6.60
2022-11-14T05:06:10.032Z,6.77
2022-11-14T05:08:54.897Z,8.60
2022-11-14T05:11:40.000Z,8.70
2022-11-14T05:14:25.334Z,9.43
2022-11-14T05:17:10.111Z,9.70
2022-11-14T05:19:55.254Z,9.80
2022-11-14T05:22:40.393Z,11.00
2022-11-14T05:25:25.437Z,11.53
2022-11-14T05:28:10.305Z,11.47
2022-11-14T05:31:02.843Z,11.80
2022-11-14T05:33:48.193Z,10.83
2022-11-14T05:36:33.018Z,11.55
2022-11-14T05:39:17.899Z,11.63
2022-11-14T05:42:02.856Z,9.18
2022-11-14T05:44:47.773Z,9.88
2022-11-14T05:47:32.645Z,9.40
2022-11-14T05:50:17.433Z,9.37
2022-11-14T05:53:02.355Z,9.20
2022-11-14T05:55:46.999Z,8.48
2022-11-14T05:58:32.831Z,7.13
2022-11-14T06:01:19.519Z,7.53
2022-11-14T06:04:06.083Z,7.20
2022-11-14T06:06:51.355Z,6.30
2022-11-14T06:09:36.760Z,6.80
2022-11-14T06:12:21.599Z,7.13
2022-11-14T06:15:06.714Z,6.30
2022-11-14T06:17:52.573Z,6.38
2022-11-14T06:20:37.735Z,6.70
2022-11-14T06:23:24.900Z,6.85
2022-11-14T06:26:19.693Z,7.63
2022-11-14T06:29:05.669Z,8.60
2022-11-14T06:31:52.105Z,8.60
2022-11-14T06:34:37.067Z,9.63
2022-11-14T06:37:23.602Z,8.93
2022-11-14T06:40:08.958Z,9.38
2022-11-14T06:42:57.358Z,9.10
2022-11-14T06:45:42.243Z,8.87
2022-11-14T06:48:27.943Z,9.40
2022-11-14T06:51:14.157Z,9.00
2022-11-14T06:53:59.120Z,8.70
2022-11-14T06:56:43.916Z,8.27
2022-11-14T06:59:28.773Z,9.05
2022-11-14T07:02:20.481Z,8.73
2022-11-14T07:05:06.999Z,8.67
2022-11-14T07:07:52.102Z,8.52
2022-11-14T07:10:36.994Z,8.63
2022-11-14T07:13:21.807Z,8.83
2022-11-14T07:16:06.872Z,9.40
2022-11-14T07:18:51.945Z,9.33
2022-11-14T07:21:36.968Z,9.63
2022-11-14T07:24:22.184Z,10.60
2022-11-14T07:27:09.382Z,11.50
2022-11-14T07:29:54.576Z,12.00
2022-11-14T07:32:39.449Z,12.73
2022-11-14T07:35:24.552Z,10.50
2022-11-14T07:38:11.011Z,9.10
2022-11-14T07:40:59.507Z,9.37
2022-11-14T07:43:45.112Z,9.67
2022-11-14T07:46:30.253Z,12.23
2022-11-14T07:49:15.531Z,11.88
2022-11-14T07:52:00.869Z,15.15
2022-11-14T07:54:46.177Z,12.02
2022-11-14T07:57:32.416Z,13.68
2022-11-14T08:00:20.881Z,11.95
2022-11-14T08:03:06.725Z,11.15
2022-11-14T08:05:51.970Z,11.00
2022-11-14T08:08:37.221Z,11.77
2022-11-14T08:11:42.358Z,12.90
2022-11-14T08:14:27.596Z,13.25
2022-11-14T08:17:12.652Z,13.13
2022-11-14T08:19:57.572Z,12.77
2022-11-14T08:22:42.774Z,12.18
2022-11-14T08:25:27.995Z,12.50
2022-11-14T08:28:13.149Z,13.07
2022-11-14T08:31:02.258Z,12.82
2022-11-14T08:33:47.220Z,11.32
2022-11-14T08:36:32.329Z,12.45
2022-11-14T08:39:17.263Z,11.98
2022-11-14T08:42:02.174Z,14.13
2022-11-14T08:44:51.878Z,14.07
2022-11-14T08:47:37.539Z,14.15
2022-11-14T08:50:22.936Z,14.50
2022-11-14T08:53:07.889Z,13.73
2022-11-14T08:55:53.079Z,14.38
2022-11-14T08:58:38.125Z,15.50
2022-11-14T09:01:23.294Z,13.38
2022-11-14T09:04:09.193Z,12.40
2022-11-14T09:06:53.950Z,13.93
2022-11-14T09:09:38.808Z,14.25
2022-11-14T09:12:24.182Z,14.50
2022-11-14T09:15:09.476Z,14.40
2022-11-14T09:17:55.043Z,15.10
2022-11-14T09:20:40.677Z,16.70
2022-11-14T09:23:25.704Z,16.65
2022-11-14T09:26:11.510Z,15.55
2022-11-14T09:28:56.612Z,16.13
2022-11-14T09:31:42.024Z,17.08
2022-11-14T09:34:26.935Z,16.48
2022-11-14T09:37:11.878Z,17.48
2022-11-14T09:39:56.631Z,18.70
2022-11-14T09:43:00.779Z,18.38
2022-11-14T09:45:48.677Z,17.38
2022-11-14T09:48:33.760Z,16.50
2022-11-14T09:51:23.509Z,15.77
2022-11-14T09:54:18.595Z,15.85
2022-11-14T09:57:03.452Z,16.10
2022-11-14T09:59:49.227Z,17.38
2022-11-14T10:02:44.857Z,15.98
2022-11-14T10:05:36.720Z,15.88
2022-11-14T10:08:34.001Z,15.48
2022-11-14T10:11:23.170Z,15.68
2022-11-14T10:14:19.387Z,15.02
2022-11-14T10:17:16.685Z,13.73
2022-11-14T10:20:01.440Z,14.63
2022-11-14T10:23:05.063Z,14.25
2022-11-14T10:26:08.078Z,13.93
2022-11-14T10:28:53.074Z,14.73
2022-11-14T10:31:51.470Z,13.43
2022-11-14T10:34:39.383Z,14.15
2022-11-14T10:37:36.862Z,13.15
2022-11-14T10:40:28.035Z,13.85
2022-11-14T10:43:22.403Z,13.77
2022-11-14T10:46:15.126Z,14.02
2022-11-14T10:49:00.888Z,12.65
2022-11-14T10:51:54.686Z,13.45
2022-11-14T10:54:53.070Z,12.82
2022-11-14T10:57:38.000Z,12.93
2022-11-14T11:00:23.140Z,13.27
2022-11-14T11:03:08.454Z,13.52
2022-11-14T11:05:57.627Z,13.02
2022-11-14T11:09:01.642Z,12.80
2022-11-14T11:11:57.888Z,13.18
2022-11-14T11:14:43.413Z,13.07
2022-11-14T11:17:35.074Z,13.75
2022-11-14T11:20:25.574Z,13.18
2022-11-14T11:23:13.274Z,14.05
2022-11-14T11:26:11.594Z,14.02
2022-11-14T11:29:06.081Z,13.15
2022-11-14T11:31:58.701Z,14.20
2022-11-14T11:34:44.184Z,13.88
2022-11-14T11:37:36.774Z,14.57
2022-11-14T11:40:29.489Z,14.40
2022-11-14T11:43:42.091Z,13.48
2022-11-14T11:46:34.288Z,13.98
2022-11-14T11:49:34.004Z,14.07
2022-11-14T11:52:28.233Z,13.30
2022-11-14T11:55:14.022Z,13.18
2022-11-14T11:58:05.239Z,13.15
2022-11-14T12:00:56.786Z,13.00
2022-11-14T12:04:00.855Z,13.20
2022-11-14T12:07:15.547Z,12.90
2022-11-14T12:10:10.342Z,13.65
2022-11-14T12:13:04.722Z,13.18
2022-11-14T12:16:06.458Z,12.88
2022-11-14T12:19:08.278Z,13.38
2022-11-14T12:22:02.584Z,13.00
2022-11-14T12:24:59.643Z,13.25
2022-11-14T12:27:49.806Z,12.98
2022-11-14T12:30:35.610Z,13.45
2022-11-14T12:33:27.064Z,13.55
2022-11-14T12:36:12.893Z,13.75
2022-11-14T12:38:58.643Z,13.60
2022-11-14T12:41:43.471Z,14.02
2022-11-14T12:44:28.422Z,13.75
2022-11-14T12:47:15.263Z,14.07
2022-11-14T12:50:01.302Z,14.30
2022-11-14T12:52:50.871Z,14.25
2022-11-14T12:55:35.700Z,14.27
2022-11-14T12:58:27.656Z,14.45
2022-11-14T13:01:32.210Z,15.45
2022-11-14T13:04:40.159Z,16.10
2022-11-14T13:07:34.676Z,15.82
2022-11-14T13:10:28.922Z,16.50
2022-11-14T13:13:34.112Z,15.98
2022-11-14T13:16:43.666Z,15.80
2022-11-14T13:19:47.386Z,15.75
2022-11-14T13:22:37.174Z,16.15
2022-11-14T13:25:22.706Z,15.43
2022-11-14T13:28:26.705Z,17.17
2022-11-14T13:31:21.956Z,17.02
2022-11-14T13:34:26.122Z,16.73
2022-11-14T13:37:21.524Z,16.58
2022-11-14T13:40:24.984Z,16.95
2022-11-14T13:43:28.743Z,15.77
2022-11-14T13:46:44.374Z,16.02
2022-11-14T13:49:29.155Z,15.23
2022-11-14T13:52:15.075Z,15.65
2022-11-14T13:55:00.437Z,14.63
2022-11-14T13:57:49.322Z,15.43
2022-11-14T14:01:04.005Z,14.73
2022-11-14T14:03:59.597Z,15.52
2022-11-14T14:07:20.691Z,15.15
2022-11-14T14:10:24.591Z,15.43
2022-11-14T14:13:09.463Z,15.25
2022-11-14T14:15:54.401Z,15.60
2022-11-14T14:18:42.266Z,14.57
2022-11-14T14:21:34.909Z,15.38
2022-11-14T14:24:31.601Z,14.02
2022-11-14T14:27:29.488Z,14.70
2022-11-14T14:30:16.238Z,14.52
2022-11-14T14:33:07.316Z,15.80
2022-11-14T14:35:53.403Z,14.75
2022-11-14T14:38:38.693Z,14.73
2022-11-14T14:41:24.028Z,15.52
2022-11-14T14:44:21.568Z,16.00
2022-11-14T14:47:15.902Z,15.45
2022-11-14T14:50:02.376Z,15.27
2022-11-14T14:52:54.843Z,15.73
2022-11-14T14:55:39.828Z,14.98
2022-11-14T14:58:30.129Z,16.23
2022-11-14T15:01:29.128Z,15.93
2022-11-14T15:04:15.723Z,16.30
2022-11-14T15:07:00.665Z,15.00
2022-11-14T15:09:57.707Z,14.82
2022-11-14T15:12:43.113Z,15.55
2022-11-14T15:15:28.286Z,15.50
2022-11-14T15:18:23.930Z,15.25
2022-11-14T15:21:09.962Z,15.23
2022-11-14T15:24:02.417Z,15.68
2022-11-14T15:26:49.794Z,15.38
2022-11-14T15:29:34.778Z,16.63
2022-11-14T15:32:21.131Z,14.90
2022-11-14T15:35:08.680Z,15.52
2022-11-14T15:38:28.734Z,15.05
2022-11-14T15:41:29.792Z,14.98
2022-11-14T15:44:31.047Z,15.15
2022-11-14T15:47:27.078Z,14.27
2022-11-14T15:50:12.008Z,14.88
2022-11-14T15:52:57.013Z,15.48
2022-11-14T15:55:41.776Z,15.50
2022-11-14T15:58:28.659Z,15.73
2022-11-14T16:01:17.238Z,14.55
2022-11-14T16:04:02.808Z,15.35
2022-11-14T16:06:48.129Z,18.63
2022-11-14T16:09:33.060Z,18.13
2022-11-14T16:12:18.115Z,16.38
2022-11-14T16:15:03.159Z,19.40
2022-11-14T16:17:49.238Z,16.48
2022-11-14T16:20:37.974Z,16.63
2022-11-14T16:23:23.390Z,15.65
2022-11-14T16:26:08.203Z,16.05
2022-11-14T16:28:53.188Z,15.48
2022-11-14T16:31:38.218Z,16.85
2022-11-14T16:34:24.554Z,15.68
2022-11-14T16:37:11.620Z,15.40
2022-11-14T16:39:56.735Z,16.08
2022-11-14T16:42:42.168Z,20.40
2022-11-14T16:45:27.656Z,21.25
2022-11-14T16:48:12.753Z,17.88
2022-11-14T16:51:14.617Z,22.25
2022-11-14T16:54:05.423Z,29.50
2022-11-14T16:56:50.560Z,20.67
2022-11-14T16:59:36.066Z,18.02
2022-11-14T17:02:21.334Z,16.27
2022-11-14T17:05:06.875Z,14.88
2022-11-14T17:07:51.877Z,16.75
2022-11-14T17:10:43.229Z,15.23
2022-11-14T17:13:29.258Z,15.55
2022-11-14T17:16:14.442Z,16.15
2022-11-14T17:18:59.249Z,15.48
2022-11-14T17:21:44.475Z,14.68
2022-11-14T17:24:31.518Z,15.18
2022-11-14T17:27:17.152Z,15.75
2022-11-14T17:30:02.009Z,15.93
2022-11-14T17:32:46.899Z,15.73
2022-11-14T17:35:31.865Z,15.68
2022-11-14T17:38:16.732Z,19.63
2022-11-14T17:41:01.627Z,20.30
2022-11-14T17:43:46.614Z,15.98
2022-11-14T17:46:32.215Z,22.85
2022-11-14T17:49:16.912Z,22.00
2022-11-14T17:52:01.844Z,18.88
2022-11-14T17:54:46.856Z,14.80
2022-11-14T17:57:31.925Z,13.48
2022-11-14T18:00:17.579Z,12.68
2022-11-14T18:03:02.560Z,11.90
2022-11-14T18:05:47.731Z,12.93
2022-11-14T18:08:33.969Z,12.25
2022-11-14T18:11:20.398Z,13.23
2022-11-14T18:14:05.693Z,12.20
2022-11-14T18:17:11.907Z,12.32
2022-11-14T18:19:56.507Z,12.15
2022-11-14T18:22:42.104Z,12.77
2022-11-14T18:25:28.647Z,12.68
2022-11-14T18:28:13.600Z,13.32
2022-11-14T18:30:58.532Z,12.85
2022-11-14T18:33:43.432Z,12.50
2022-11-14T18:36:28.551Z,11.35
2022-11-14T18:39:13.771Z,11.45
2022-11-14T18:42:02.953Z,11.18
2022-11-14T18:44:48.642Z,10.30
2022-11-14T18:47:33.456Z,9.70
2022-11-14T18:50:18.220Z,9.73
2022-11-14T18:53:03.141Z,10.10
2022-11-14T18:55:53.235Z,10.63
2022-11-14T18:58:41.457Z,9.88
2022-11-14T19:01:29.369Z,10.05
2022-11-14T19:04:17.342Z,10.60
2022-11-14T19:07:02.246Z,10.45
2022-11-14T19:09:47.713Z,10.07
2022-11-14T19:12:32.539Z,9.90
2022-11-14T19:15:17.537Z,10.73
2022-11-14T19:18:02.424Z,10.10
2022-11-14T19:20:59.406Z,9.93
2022-11-14T19:23:44.277Z,10.38
2022-11-14T19:26:29.733Z,10.30
2022-11-14T19:29:14.897Z,9.90
2022-11-14T19:32:00.268Z,10.27
2022-11-14T19:34:45.520Z,9.63
2022-11-14T19:37:33.575Z,11.02
2022-11-14T19:40:18.470Z,10.57
2022-11-14T19:43:07.189Z,10.68
2022-11-14T19:45:52.117Z,10.98
2022-11-14T19:48:37.344Z,11.25
2022-11-14T19:51:22.686Z,10.85
2022-11-14T19:54:11.186Z,11.52
2022-11-14T19:56:56.436Z,11.70
2022-11-14T19:59:41.336Z,11.68
2022-11-14T20:02:28.511Z,12.50
2022-11-14T20:05:13.738Z,13.40
2022-11-14T20:07:58.635Z,13.35
2022-11-14T20:10:53.912Z,14.15
2022-11-14T20:13:40.233Z,13.80
2022-11-14T20:16:27.939Z,14.27
2022-11-14T20:19:13.864Z,12.95
2022-11-14T20:21:58.893Z,13.40
2022-11-14T20:24:43.904Z,14.40
2022-11-14T20:27:29.113Z,15.05
2022-11-14T20:30:14.221Z,13.40
2022-11-14T20:32:59.399Z,14.30
2022-11-14T20:35:44.617Z,12.50
2022-11-14T20:38:31.050Z,14.57
2022-11-14T20:41:16.452Z,13.57
2022-11-14T20:44:02.232Z,12.48
2022-11-14T20:46:47.582Z,13.18
2022-11-14T20:49:33.755Z,12.15
2022-11-14T20:52:18.972Z,12.13
2022-11-14T20:55:10.391Z,12.75
2022-11-14T20:57:56.708Z,12.65
2022-11-14T21:00:41.837Z,12.23
2022-11-14T21:03:27.031Z,13.30
2022-11-14T21:06:12.701Z,12.73
2022-11-14T21:08:57.787Z,12.18
2022-11-14T21:11:42.507Z,11.95
2022-11-14T21:14:27.169Z,11.68
2022-11-14T21:17:12.133Z,12.13
2022-11-14T21:19:57.525Z,12.40
2022-11-14T21:22:42.308Z,11.52
2022-11-14T21:25:27.277Z,12.45
2022-11-14T21:28:12.223Z,11.85
2022-11-14T21:30:58.580Z,12.23
2022-11-14T21:33:43.535Z,11.88
2022-11-14T21:36:44.527Z,12.30
2022-11-14T21:39:30.705Z,11.25
2022-11-14T21:42:18.457Z,11.65
2022-11-14T21:45:04.028Z,11.02
2022-11-14T21:47:49.109Z,11.45
2022-11-14T21:50:34.022Z,11.43
2022-11-14T21:53:19.022Z,11.95
2022-11-14T21:56:11.104Z,11.85
2022-11-14T21:59:16.008Z,11.48
2022-11-14T22:02:21.047Z,10.88
2022-11-14T22:05:06.613Z,11.27
2022-11-14T22:07:51.591Z,11.38
2022-11-14T22:10:36.749Z,11.43
2022-11-14T22:13:21.661Z,11.18
2022-11-14T22:16:07.353Z,10.75
2022-11-14T22:18:52.870Z,11.02
2022-11-14T22:21:38.373Z,10.45
2022-11-14T22:24:23.773Z,10.40
2022-11-14T22:27:08.842Z,11.25
2022-11-14T22:29:53.759Z,10.90
2022-11-14T22:32:39.526Z,10.90
2022-11-14T22:35:24.303Z,11.15
2022-11-14T22:38:09.202Z,10.98
2022-11-14T22:40:55.521Z,11.32
2022-11-14T22:43:40.536Z,11.45
2022-11-14T22:46:25.631Z,10.80
2022-11-14T22:49:10.665Z,10.90
2022-11-14T22:51:55.555Z,11.05
2022-11-14T22:54:40.454Z,10.60
2022-11-14T22:57:25.389Z,10.32
2022-11-14T23:00:10.564Z,10.32
2022-11-14T23:02:55.586Z,9.93
2022-11-14T23:05:40.447Z,9.55
2022-11-14T23:08:25.450Z,9.00
2022-11-14T23:11:12.828Z,8.52
2022-11-14T23:13:58.128Z,8.50
2022-11-14T23:16:42.994Z,8.80
2022-11-14T23:19:27.934Z,9.50
2022-11-14T23:22:12.812Z,9.60
2022-11-14T23:24:57.763Z,10.23
2022-11-14T23:27:42.659Z,9.32
2022-11-14T23:30:28.877Z,9.25
2022-11-14T23:33:13.921Z,8.45
2022-11-14T23:35:59.119Z,10.02
2022-11-14T23:38:44.257Z,8.93
2022-11-14T23:41:30.678Z,9.35
2022-11-14T23:44:15.789Z,8.75
2022-11-14T23:47:00.944Z,8.45
2022-11-14T23:49:45.757Z,8.70
2022-11-14T23:52:30.735Z,8.63
2022-11-14T23:55:15.715Z,8.63
2022-11-14T23:58:00.747Z,8.80
